Time;durP1;ratioP1;P1;durP2;ratioP2;P2;SDS_P1;SDS_P2;PMS_P1;PMS_P2;Temp;Humidity;BMP_temperature;BMP_pressure;BME280_temperature;BME280_humidity;BME280_pressure;Samples;Min_cycle;Max_cycle;Signal;HPM_P1;HPM_P2
2021/12/18 00:00:33;;;;;;;20.95;6.97;;;;;;;;;;6245256;28;20052;-73
2021/12/18 00:03:33;;;;;;;13.63;6.28;;;;;;;;;;6244053;28;20044;-73
2021/12/18 00:06:34;;;;;;;22.05;6.43;;;;;;;;;;6245112;28;20026;-73
2021/12/18 00:09:35;;;;;;;17.25;5.45;;;;;;;;;;6244779;28;20037;-73
2021/12/18 00:12:35;;;;;;;13.10;5.20;;;;;;;;;;6243969;28;20034;-73
2021/12/18 00:15:35;;;;;;;21.38;7.25;;;;;;;;;;6244930;28;20037;-73
2021/12/18 00:18:36;;;;;;;15.02;5.22;;;;;;;;;;6245000;28;20017;-73
2021/12/18 00:21:36;;;;;;;27.45;6.75;;;;;;;;;;6244087;28;20013;-73
2021/12/18 00:24:37;;;;;;;24.73;9.07;;;;;;;;;;6242778;28;20029;-73
2021/12/18 00:27:37;;;;;;;14.85;5.82;;;;;;;;;;6243635;28;20484;-73
2021/12/18 00:30:38;;;;;;;18.02;6.85;;;;;;;;;;6243781;28;20017;-73
2021/12/18 00:33:38;;;;;;;15.40;5.50;;;;;;;;;;6244420;28;20029;-73
2021/12/18 00:36:38;;;;;;;19.73;6.10;;;;;;;;;;6244556;28;20045;-73
2021/12/18 00:39:52;;;;;;;13.32;6.18;;;;;;;;;;6243710;28;20140;-73
2021/12/18 00:43:02;;;;;;;15.38;6.38;;;;;;;;;;6244033;28;20018;-73
2021/12/18 00:46:02;;;;;;;15.93;4.97;;;;;;;;;;6244175;28;20018;-73
2021/12/18 00:49:04;;;;;;;16.02;6.88;;;;;;;;;;6244145;28;20048;-73
2021/12/18 00:52:04;;;;;;;19.88;7.22;;;;;;;;;;6244252;28;20068;-73
2021/12/18 00:55:05;;;;;;;15.65;6.00;;;;;;;;;;6241694;28;20117;-73
2021/12/18 00:58:05;;;;;;;17.55;6.43;;;;;;;;;;6243245;28;20021;-73
2021/12/18 01:01:09;;;;;;;16.60;5.07;;;;;;;;;;6242300;28;20102;-73
2021/12/18 01:04:09;;;;;;;15.52;6.18;;;;;;;;;;6243873;28;20199;-73
2021/12/18 01:07:09;;;;;;;15.63;5.05;;;;;;;;;;6243674;28;20029;-73
2021/12/18 01:10:29;;;;;;;16.67;6.55;;;;;;;;;;6243285;28;20120;-73
2021/12/18 01:13:34;;;;;;;12.85;5.30;;;;;;;;;;6243454;28;20543;-73
2021/12/18 01:23:01;;;;;;;15.82;6.05;;;;;;;;;;6243973;28;20033;-73
2021/12/18 01:26:03;;;;;;;11.68;4.88;;;;;;;;;;6242814;28;20033;-73
2021/12/18 01:29:04;;;;;;;11.10;4.90;;;;;;;;;;6243386;28;20025;-73
2021/12/18 01:32:04;;;;;;;11.90;5.28;;;;;;;;;;6233215;28;20036;-73
2021/12/18 01:35:05;;;;;;;16.33;5.70;;;;;;;;;;6243235;28;20407;-73
2021/12/18 01:38:05;;;;;;;12.38;5.30;;;;;;;;;;6235347;28;20030;-73
2021/12/18 01:41:05;;;;;;;17.15;6.57;;;;;;;;;;6237803;28;20041;-73
2021/12/18 01:54:07;;;;;;;9.70;5.20;;;;;;;;;;6243288;28;20025;-73
2021/12/18 01:57:07;;;;;;;22.05;6.43;;;;;;;;;;6242742;28;20273;-73
2021/12/18 02:00:14;;;;;;;14.55;5.10;;;;;;;;;;6239312;28;20500;-73
2021/12/18 02:03:15;;;;;;;14.52;6.20;;;;;;;;;;6222704;28;20505;-73
2021/12/18 02:06:15;;;;;;;22.55;10.25;;;;;;;;;;6221847;28;20061;-73
2021/12/18 02:09:16;;;;;;;24.50;8.73;;;;;;;;;;6237752;28;20481;-73
2021/12/18 02:12:18;;;;;;;24.48;8.43;;;;;;;;;;6247837;28;20061;-73
2021/12/18 02:21:57;;;;;;;19.33;6.75;;;;;;;;;;6248287;28;20033;-73
2021/12/18 02:24:57;;;;;;;13.50;6.78;;;;;;;;;;6246860;28;20144;-73
2021/12/18 02:27:58;;;;;;;21.85;9.98;;;;;;;;;;6247109;28;20052;-73
2021/12/18 02:30:58;;;;;;;15.63;6.57;;;;;;;;;;6247098;28;20091;-73
2021/12/18 02:33:59;;;;;;;25.67;8.07;;;;;;;;;;6247462;28;20040;-73
2021/12/18 02:37:05;;;;;;;22.88;7.45;;;;;;;;;;6245926;28;20025;-73
2021/12/18 02:43:10;;;;;;;13.65;5.05;;;;;;;;;;6247782;28;20430;-73
2021/12/18 02:46:17;;;;;;;19.73;7.78;;;;;;;;;;6245869;28;20033;-73
2021/12/18 02:49:17;;;;;;;16.23;6.00;;;;;;;;;;6247297;28;20474;-74
2021/12/18 02:52:18;;;;;;;21.27;6.53;;;;;;;;;;6238565;28;20112;-73
2021/12/18 02:55:18;;;;;;;17.02;6.95;;;;;;;;;;6242959;28;20065;-73
2021/12/18 02:58:18;;;;;;;20.52;6.60;;;;;;;;;;6234426;28;20032;-73
2021/12/18 03:01:21;;;;;;;21.70;7.97;;;;;;;;;;6237550;28;20435;-73
2021/12/18 03:04:30;;;;;;;17.83;6.82;;;;;;;;;;6222426;28;20433;-73
2021/12/18 03:07:31;;;;;;;17.17;6.95;;;;;;;;;;6244393;28;20433;-73
2021/12/18 03:23:57;;;;;;;28.45;9.40;;;;;;;;;;6246863;28;20068;-73
2021/12/18 03:26:57;;;;;;;38.75;13.45;;;;;;;;;;6246740;28;20028;-73
2021/12/18 03:29:57;;;;;;;24.30;9.70;;;;;;;;;;6244619;28;20374;-73
2021/12/18 03:32:58;;;;;;;18.55;8.25;;;;;;;;;;6246142;28;20026;-73
2021/12/18 03:35:58;;;;;;;18.10;5.88;;;;;;;;;;6245598;28;20064;-73
2021/12/18 03:39:00;;;;;;;34.60;10.52;;;;;;;;;;6245904;28;20017;-73
2021/12/18 03:42:00;;;;;;;26.97;10.00;;;;;;;;;;6245767;28;20025;-73
2021/12/18 03:45:00;;;;;;;14.27;6.97;;;;;;;;;;6245815;28;20017;-73
2021/12/18 03:48:00;;;;;;;16.38;6.65;;;;;;;;;;6245906;28;20065;-73
2021/12/18 03:51:01;;;;;;;20.42;7.65;;;;;;;;;;6244896;28;20021;-73
2021/12/18 03:54:02;;;;;;;15.85;7.60;;;;;;;;;;6244486;28;20021;-73
2021/12/18 03:57:02;;;;;;;16.55;6.85;;;;;;;;;;6245682;28;20018;-73
2021/12/18 04:00:08;;;;;;;19.63;8.05;;;;;;;;;;6243817;28;20018;-73
2021/12/18 04:03:08;;;;;;;28.80;9.63;;;;;;;;;;6245156;28;20025;-73
2021/12/18 04:06:08;;;;;;;23.33;8.35;;;;;;;;;;6245141;28;20087;-73
2021/12/18 04:09:11;;;;;;;30.15;10.38;;;;;;;;;;6243847;28;20044;-73
2021/12/18 04:12:11;;;;;;;25.13;10.00;;;;;;;;;;6243536;28;20095;-73
2021/12/18 04:15:11;;;;;;;15.23;7.50;;;;;;;;;;6244873;28;20116;-73
2021/12/18 04:18:12;;;;;;;17.30;6.82;;;;;;;;;;6244986;28;20029;-73
2021/12/18 04:21:12;;;;;;;15.35;6.30;;;;;;;;;;6244372;28;20045;-73
2021/12/18 04:24:12;;;;;;;23.35;9.48;;;;;;;;;;6245259;28;20109;-73
2021/12/18 04:27:12;;;;;;;17.35;7.30;;;;;;;;;;6244640;28;20025;-73
2021/12/18 04:30:13;;;;;;;15.57;7.88;;;;;;;;;;6244575;28;20112;-73
2021/12/18 04:33:13;;;;;;;18.88;8.43;;;;;;;;;;6244185;28;20063;-73
2021/12/18 04:36:14;;;;;;;16.95;6.63;;;;;;;;;;6242942;28;20028;-73
2021/12/18 04:39:14;;;;;;;15.80;5.95;;;;;;;;;;6244438;28;20021;-73
2021/12/18 04:42:14;;;;;;;13.98;4.85;;;;;;;;;;6244322;28;20021;-73
2021/12/18 04:45:15;;;;;;;14.27;6.28;;;;;;;;;;6244073;28;20033;-73
2021/12/18 04:48:15;;;;;;;22.75;8.27;;;;;;;;;;6225316;28;20488;-73
2021/12/18 04:51:15;;;;;;;19.58;8.02;;;;;;;;;;6233138;28;20060;-73
2021/12/18 04:54:16;;;;;;;14.70;5.90;;;;;;;;;;6244657;28;20100;-73
2021/12/18 04:57:16;;;;;;;21.83;7.90;;;;;;;;;;6244134;28;20030;-73
2021/12/18 05:00:17;;;;;;;16.33;7.75;;;;;;;;;;6242610;28;20112;-73
2021/12/18 05:03:18;;;;;;;24.33;9.95;;;;;;;;;;6243717;28;20179;-73
2021/12/18 05:06:18;;;;;;;33.22;11.55;;;;;;;;;;6244139;28;20025;-73
2021/12/18 05:09:19;;;;;;;31.33;15.10;;;;;;;;;;6242475;28;20087;-73
2021/12/18 05:12:19;;;;;;;29.05;12.35;;;;;;;;;;6222205;28;20105;-73
2021/12/18 05:15:19;;;;;;;26.77;13.23;;;;;;;;;;6218802;28;20025;-73
2021/12/18 05:18:19;;;;;;;19.95;9.27;;;;;;;;;;6231200;28;20014;-73
2021/12/18 05:21:20;;;;;;;23.42;10.98;;;;;;;;;;6243364;28;20025;-73
2021/12/18 05:24:20;;;;;;;19.92;10.43;;;;;;;;;;6243951;28;20304;-73
2021/12/18 05:27:20;;;;;;;23.25;9.38;;;;;;;;;;6243380;28;20073;-73
2021/12/18 05:30:20;;;;;;;24.65;8.93;;;;;;;;;;6243563;28;20033;-73
2021/12/18 05:33:21;;;;;;;23.83;9.63;;;;;;;;;;6243365;28;20021;-73
2021/12/18 05:36:34;;;;;;;20.15;11.02;;;;;;;;;;6243402;28;20381;-73
2021/12/18 05:39:34;;;;;;;19.50;10.13;;;;;;;;;;6240819;28;20025;-73
2021/12/18 05:42:35;;;;;;;21.50;9.15;;;;;;;;;;6243129;28;20028;-73
2021/12/18 05:45:35;;;;;;;21.95;11.25;;;;;;;;;;6241882;28;20053;-73
2021/12/18 05:48:35;;;;;;;23.50;10.77;;;;;;;;;;6243520;28;20022;-73
2021/12/18 05:51:36;;;;;;;19.05;8.73;;;;;;;;;;6242707;28;20057;-73
2021/12/18 05:54:36;;;;;;;16.60;8.07;;;;;;;;;;6243507;28;20017;-73
2021/12/18 05:57:37;;;;;;;27.02;12.68;;;;;;;;;;6234851;28;20390;-73
2021/12/18 06:00:39;;;;;;;34.63;10.60;;;;;;;;;;6218217;28;20026;-73
2021/12/18 06:03:40;;;;;;;24.48;8.48;;;;;;;;;;6218340;28;20033;-73
2021/12/18 06:06:41;;;;;;;21.73;10.67;;;;;;;;;;6218948;28;20030;-73
2021/12/18 06:09:41;;;;;;;29.77;13.60;;;;;;;;;;6220832;28;20071;-73
2021/12/18 06:12:41;;;;;;;39.20;17.00;;;;;;;;;;6236615;28;20088;-73
2021/12/18 06:15:41;;;;;;;41.22;16.10;;;;;;;;;;6236807;28;20334;-73
2021/12/18 06:18:46;;;;;;;33.33;14.70;;;;;;;;;;6238355;28;20564;-73
2021/12/18 06:21:47;;;;;;;24.70;11.27;;;;;;;;;;6235020;28;20057;-73
2021/12/18 06:24:47;;;;;;;31.55;10.70;;;;;;;;;;6237840;28;20036;-73
2021/12/18 06:27:48;;;;;;;29.42;11.95;;;;;;;;;;6236925;28;20036;-73
2021/12/18 06:30:49;;;;;;;19.52;7.43;;;;;;;;;;6239528;28;20029;-73
2021/12/18 06:33:49;;;;;;;23.20;10.43;;;;;;;;;;6255429;28;20025;-73
2021/12/18 06:36:49;;;;;;;35.50;15.95;;;;;;;;;;6239765;28;20382;-73
2021/12/18 06:39:50;;;;;;;58.63;29.15;;;;;;;;;;6230268;28;20032;-73
2021/12/18 06:42:50;;;;;;;47.55;22.45;;;;;;;;;;6236162;28;20120;-73
2021/12/18 06:45:50;;;;;;;59.38;29.02;;;;;;;;;;6224669;28;20034;-73
2021/12/18 06:48:50;;;;;;;39.28;17.33;;;;;;;;;;6218134;28;20456;-73
2021/12/18 06:51:51;;;;;;;71.68;32.42;;;;;;;;;;6235928;28;20104;-73
2021/12/18 06:54:51;;;;;;;33.33;16.13;;;;;;;;;;6243158;28;20381;-73
2021/12/18 06:57:51;;;;;;;28.05;11.75;;;;;;;;;;6246555;28;20417;-73
2021/12/18 07:00:53;;;;;;;25.25;10.40;;;;;;;;;;6246499;28;20021;-73
2021/12/18 07:03:53;;;;;;;39.58;17.30;;;;;;;;;;6245022;28;20389;-73
2021/12/18 07:06:54;;;;;;;27.45;12.43;;;;;;;;;;6247483;28;20029;-73
2021/12/18 07:09:54;;;;;;;32.65;11.65;;;;;;;;;;6246421;28;20472;-73
2021/12/18 07:12:54;;;;;;;20.67;8.20;;;;;;;;;;6246325;28;20564;-73
2021/12/18 07:15:55;;;;;;;22.50;9.48;;;;;;;;;;6239276;28;20096;-73
2021/12/18 07:18:55;;;;;;;25.27;9.52;;;;;;;;;;6232146;28;20022;-73
2021/12/18 07:21:55;;;;;;;70.60;30.25;;;;;;;;;;6232523;28;20061;-73
2021/12/18 07:24:56;;;;;;;32.58;13.02;;;;;;;;;;6238231;28;20087;-73
2021/12/18 07:27:56;;;;;;;41.67;17.17;;;;;;;;;;6220254;28;20040;-73
2021/12/18 07:30:56;;;;;;;85.00;32.70;;;;;;;;;;6220080;28;20423;-73
2021/12/18 07:33:57;;;;;;;36.33;11.25;;;;;;;;;;6221292;28;20385;-73
2021/12/18 07:36:57;;;;;;;51.58;23.35;;;;;;;;;;6236944;28;20025;-73
2021/12/18 07:39:57;;;;;;;33.42;13.27;;;;;;;;;;6239676;28;20025;-73
2021/12/18 07:42:57;;;;;;;41.42;18.00;;;;;;;;;;6237070;28;20140;-73
2021/12/18 07:45:58;;;;;;;51.17;24.02;;;;;;;;;;6236840;28;20060;-73
2021/12/18 07:48:58;;;;;;;69.13;29.73;;;;;;;;;;6228975;28;20516;-73
2021/12/18 07:52:02;;;;;;;57.58;21.50;;;;;;;;;;6229125;28;20201;-73
2021/12/18 07:55:03;;;;;;;57.13;24.95;;;;;;;;;;6245705;28;20067;-74
2021/12/18 07:58:04;;;;;;;75.43;36.67;;;;;;;;;;6245199;28;20027;-73
2021/12/18 08:01:04;;;;;;;40.72;20.17;;;;;;;;;;6242162;28;20108;-73
2021/12/18 08:04:04;;;;;;;33.50;14.95;;;;;;;;;;6237057;28;20040;-73
2021/12/18 08:07:04;;;;;;;26.45;11.65;;;;;;;;;;6240492;28;20036;-73
2021/12/18 08:10:05;;;;;;;16.58;6.60;;;;;;;;;;6222553;28;20124;-73
2021/12/18 08:13:05;;;;;;;34.53;14.00;;;;;;;;;;6226755;28;20432;-73
2021/12/18 08:16:06;;;;;;;18.13;9.18;;;;;;;;;;6224954;28;20490;-73
2021/12/18 08:19:06;;;;;;;31.38;14.70;;;;;;;;;;6227450;28;20018;-73
2021/12/18 08:22:06;;;;;;;16.13;6.25;;;;;;;;;;6235814;28;20079;-73
2021/12/18 08:25:07;;;;;;;95.90;40.20;;;;;;;;;;6232432;28;20485;-73
2021/12/18 08:28:07;;;;;;;45.47;19.95;;;;;;;;;;6235935;28;20147;-73
2021/12/18 08:31:07;;;;;;;34.08;15.90;;;;;;;;;;6231057;28;20022;-73
2021/12/18 08:34:07;;;;;;;29.45;12.75;;;;;;;;;;6229562;28;20026;-73
2021/12/18 08:37:08;;;;;;;21.65;8.43;;;;;;;;;;6232716;28;20101;-73
2021/12/18 08:40:09;;;;;;;21.13;8.27;;;;;;;;;;6234421;28;20043;-73
2021/12/18 08:43:09;;;;;;;22.05;10.10;;;;;;;;;;6233365;28;20013;-73
2021/12/18 08:46:09;;;;;;;19.45;9.27;;;;;;;;;;6233590;28;20467;-73
2021/12/18 08:49:09;;;;;;;22.67;8.05;;;;;;;;;;6233898;28;20040;-73
2021/12/18 08:52:10;;;;;;;17.30;8.73;;;;;;;;;;6254549;28;20036;-73
2021/12/18 08:55:10;;;;;;;67.13;27.45;;;;;;;;;;6243282;28;20563;-73
2021/12/18 08:58:11;;;;;;;28.13;10.38;;;;;;;;;;6244307;28;20013;-73
2021/12/18 09:01:11;;;;;;;31.58;13.85;;;;;;;;;;6241027;28;20024;-73
2021/12/18 09:04:12;;;;;;;31.45;13.32;;;;;;;;;;6228807;28;20026;-73
2021/12/18 09:07:12;;;;;;;20.63;11.02;;;;;;;;;;6219226;28;20014;-73
2021/12/18 09:10:14;;;;;;;30.25;14.05;;;;;;;;;;6243029;28;20387;-73
2021/12/18 09:13:15;;;;;;;43.10;19.85;;;;;;;;;;6243722;28;20099;-73
2021/12/18 09:16:15;;;;;;;117.35;63.00;;;;;;;;;;6244147;28;20025;-73
2021/12/18 09:19:15;;;;;;;63.60;36.03;;;;;;;;;;6241000;28;20028;-73
2021/12/18 09:22:15;;;;;;;22.17;12.35;;;;;;;;;;6243381;28;20017;-73
2021/12/18 09:25:16;;;;;;;20.08;10.52;;;;;;;;;;6234297;28;20014;-73
2021/12/18 09:28:16;;;;;;;23.52;11.18;;;;;;;;;;6220745;28;20700;-73
2021/12/18 09:31:17;;;;;;;22.17;8.57;;;;;;;;;;6235000;28;20033;-73
2021/12/18 09:34:17;;;;;;;38.65;18.85;;;;;;;;;;6234522;28;20432;-73
2021/12/18 09:37:17;;;;;;;21.23;10.15;;;;;;;;;;6250826;28;20053;-73
2021/12/18 09:40:19;;;;;;;55.53;22.88;;;;;;;;;;6232231;28;20394;-73
2021/12/18 09:43:21;;;;;;;58.55;28.77;;;;;;;;;;6248746;28;20492;-73
2021/12/18 09:46:21;;;;;;;129.45;61.78;;;;;;;;;;6245745;28;20029;-73
2021/12/18 09:49:22;;;;;;;89.20;41.38;;;;;;;;;;6239154;28;20025;-73
2021/12/18 09:52:22;;;;;;;74.55;29.98;;;;;;;;;;6244436;28;20029;-73
2021/12/18 09:55:22;;;;;;;30.40;15.75;;;;;;;;;;6259103;28;20028;-73
2021/12/18 09:58:23;;;;;;;80.85;37.78;;;;;;;;;;6254838;28;20101;-73
2021/12/18 10:01:23;;;;;;;61.15;22.83;;;;;;;;;;6257655;28;20098;-73
2021/12/18 10:04:25;;;;;;;38.38;20.42;;;;;;;;;;6243055;28;20100;-73
2021/12/18 10:07:26;;;;;;;66.60;28.23;;;;;;;;;;6229087;28;20030;-73
2021/12/18 10:10:27;;;;;;;43.97;19.15;;;;;;;;;;6248482;28;20131;-73
2021/12/18 10:13:28;;;;;;;67.20;26.77;;;;;;;;;;6242489;28;20482;-73
2021/12/18 10:16:30;;;;;;;44.15;21.95;;;;;;;;;;6244820;28;20029;-71
2021/12/18 10:19:32;;;;;;;35.70;19.10;;;;;;;;;;6240474;28;20032;-71
2021/12/18 10:22:33;;;;;;;25.80;12.05;;;;;;;;;;6239867;28;20045;-72
2021/12/18 10:25:38;;;;;;;17.23;11.40;;;;;;;;;;6239417;28;20037;-72
2021/12/18 10:28:43;;;;;;;14.93;7.13;;;;;;;;;;6221937;28;20029;-72
2021/12/18 10:31:44;;;;;;;24.48;10.20;;;;;;;;;;6235940;28;20014;-72
2021/12/18 10:34:52;;;;;;;19.33;10.75;;;;;;;;;;6223028;28;20025;-72
2021/12/18 10:37:52;;;;;;;19.38;9.07;;;;;;;;;;6221945;28;20029;-72
2021/12/18 10:40:52;;;;;;;20.60;10.38;;;;;;;;;;6237053;28;20017;-72
2021/12/18 10:44:00;;;;;;;22.30;10.48;;;;;;;;;;6226179;28;20021;-72
2021/12/18 10:47:01;;;;;;;21.60;11.38;;;;;;;;;;6221600;28;20026;-72
2021/12/18 10:50:01;;;;;;;22.00;10.05;;;;;;;;;;6227250;28;20272;-73
2021/12/18 10:53:03;;;;;;;26.45;12.45;;;;;;;;;;6245258;28;20112;-72
2021/12/18 10:56:04;;;;;;;31.10;11.77;;;;;;;;;;6246879;28;20413;-72
2021/12/18 10:59:17;;;;;;;38.42;17.23;;;;;;;;;;6237387;28;20048;-72
2021/12/18 11:02:18;;;;;;;30.15;13.13;;;;;;;;;;6230878;28;20747;-72
2021/12/18 11:05:18;;;;;;;34.22;15.05;;;;;;;;;;6249200;28;20025;-72
2021/12/18 11:08:19;;;;;;;28.33;14.85;;;;;;;;;;6241787;28;20560;-72
2021/12/18 11:14:37;;;;;;;30.17;15.18;;;;;;;;;;6233249;28;20041;-72
2021/12/18 11:17:37;;;;;;;31.23;13.50;;;;;;;;;;6231250;28;20029;-72
2021/12/18 11:20:37;;;;;;;31.23;13.10;;;;;;;;;;6231864;28;20084;-72
2021/12/18 11:23:39;;;;;;;26.55;12.00;;;;;;;;;;6239294;28;20498;-72
2021/12/18 11:26:42;;;;;;;47.03;19.85;;;;;;;;;;6241560;28;20021;-72
2021/12/18 11:29:51;;;;;;;47.50;19.73;;;;;;;;;;6245783;28;20029;-72
2021/12/18 11:32:54;;;;;;;25.52;13.30;;;;;;;;;;6244351;28;20029;-72
2021/12/18 11:35:56;;;;;;;18.98;9.73;;;;;;;;;;6238562;28;20109;-72
2021/12/18 11:38:56;;;;;;;30.90;13.55;;;;;;;;;;6238355;28;20452;-72
2021/12/18 11:41:57;;;;;;;29.23;14.40;;;;;;;;;;6241545;28;20061;-72
2021/12/18 11:44:58;;;;;;;38.95;18.77;;;;;;;;;;6240549;28;20438;-72
2021/12/18 11:47:59;;;;;;;29.45;13.20;;;;;;;;;;6236727;28;20022;-72
2021/12/18 11:51:11;;;;;;;30.20;15.40;;;;;;;;;;6240380;28;20024;-72
2021/12/18 11:54:30;;;;;;;24.45;11.82;;;;;;;;;;6236239;28;20021;-72
2021/12/18 11:57:41;;;;;;;72.00;36.05;;;;;;;;;;6241372;28;20536;-72
2021/12/18 12:00:43;;;;;;;28.60;13.10;;;;;;;;;;6231834;28;20405;-72
2021/12/18 12:03:45;;;;;;;38.22;15.45;;;;;;;;;;6220495;28;20033;-73
2021/12/18 12:06:45;;;;;;;39.67;18.77;;;;;;;;;;6227978;28;20037;-73
2021/12/18 12:10:05;;;;;;;25.00;15.52;;;;;;;;;;6227791;28;20044;-73
2021/12/18 12:13:06;;;;;;;25.05;12.27;;;;;;;;;;6221701;28;20035;-73
2021/12/18 12:16:06;;;;;;;43.55;22.35;;;;;;;;;;6231867;28;20022;-73
2021/12/18 12:19:06;;;;;;;39.60;16.55;;;;;;;;;;6244933;28;20496;-73
2021/12/18 12:22:08;;;;;;;30.15;14.02;;;;;;;;;;6245557;28;20048;-73
2021/12/18 12:25:13;;;;;;;37.25;16.27;;;;;;;;;;6245129;28;20104;-73
2021/12/18 12:28:21;;;;;;;32.13;14.45;;;;;;;;;;6244897;28;20025;-73
2021/12/18 12:31:21;;;;;;;30.27;13.32;;;;;;;;;;6245094;28;20409;-73
2021/12/18 12:34:22;;;;;;;48.75;22.45;;;;;;;;;;6243727;28;20032;-73
2021/12/18 12:37:23;;;;;;;45.23;19.97;;;;;;;;;;6244769;28;20025;-73
2021/12/18 12:40:27;;;;;;;29.27;14.43;;;;;;;;;;6242318;28;20100;-73
2021/12/18 12:43:30;;;;;;;28.50;14.23;;;;;;;;;;6231587;28;20303;-73
2021/12/18 12:46:31;;;;;;;40.47;20.45;;;;;;;;;;6219601;28;20057;-73
2021/12/18 12:49:31;;;;;;;49.72;22.80;;;;;;;;;;6220441;28;20033;-73
2021/12/18 12:52:31;;;;;;;28.35;15.25;;;;;;;;;;6244459;28;20029;-73
2021/12/18 12:55:42;;;;;;;62.58;29.00;;;;;;;;;;6243706;28;20022;-73
2021/12/18 12:58:42;;;;;;;43.38;20.83;;;;;;;;;;6243252;28;20045;-72
2021/12/18 13:01:43;;;;;;;41.42;20.63;;;;;;;;;;6244587;28;20157;-73
2021/12/18 13:04:44;;;;;;;47.83;22.70;;;;;;;;;;6243630;28;20414;-73
2021/12/18 13:07:46;;;;;;;47.55;23.65;;;;;;;;;;6241639;28;20025;-73
2021/12/18 13:10:49;;;;;;;54.17;24.10;;;;;;;;;;6242857;28;20054;-73
2021/12/18 13:13:50;;;;;;;55.40;22.15;;;;;;;;;;6243758;28;20101;-73
2021/12/18 13:16:50;;;;;;;55.33;25.97;;;;;;;;;;6243474;28;20053;-73
2021/12/18 13:19:51;;;;;;;60.28;30.45;;;;;;;;;;6243891;28;20032;-73
2021/12/18 13:22:53;;;;;;;39.05;16.63;;;;;;;;;;6243695;28;20033;-73
2021/12/18 13:25:54;;;;;;;38.67;17.07;;;;;;;;;;6241540;28;20059;-73
2021/12/18 13:28:56;;;;;;;61.28;32.80;;;;;;;;;;6243978;28;20026;-73
2021/12/18 13:31:58;;;;;;;47.35;22.25;;;;;;;;;;6243190;28;20084;-73
2021/12/18 13:34:58;;;;;;;56.33;25.77;;;;;;;;;;6243180;28;20397;-73
2021/12/18 13:37:58;;;;;;;42.13;21.25;;;;;;;;;;6243107;28;20021;-73
2021/12/18 13:40:59;;;;;;;35.33;16.00;;;;;;;;;;6241806;28;20059;-73
2021/12/18 13:43:59;;;;;;;57.00;28.65;;;;;;;;;;6238703;28;20048;-73
2021/12/18 13:47:10;;;;;;;53.58;22.85;;;;;;;;;;6241444;28;20048;-72
2021/12/18 13:50:31;;;;;;;38.88;20.40;;;;;;;;;;6258930;28;20018;-72
2021/12/18 13:53:31;;;;;;;44.88;23.35;;;;;;;;;;6241343;28;20060;-72
2021/12/18 13:56:35;;;;;;;38.90;19.65;;;;;;;;;;6232873;28;20430;-73
2021/12/18 13:59:37;;;;;;;37.17;19.23;;;;;;;;;;6226249;28;20046;-73
2021/12/18 14:02:37;;;;;;;30.23;15.90;;;;;;;;;;6235011;28;20025;-73
2021/12/18 14:05:38;;;;;;;31.88;16.98;;;;;;;;;;6228750;28;20033;-73
2021/12/18 14:08:39;;;;;;;27.35;14.40;;;;;;;;;;6225824;28;20029;-73
2021/12/18 14:11:43;;;;;;;48.72;21.67;;;;;;;;;;6241561;28;20497;-73
2021/12/18 14:14:44;;;;;;;35.05;18.42;;;;;;;;;;6247735;28;20079;-73
2021/12/18 14:17:45;;;;;;;43.72;23.35;;;;;;;;;;6247958;28;20032;-73
2021/12/18 14:20:45;;;;;;;59.90;31.15;;;;;;;;;;6248053;28;20473;-73
2021/12/18 14:23:46;;;;;;;42.80;20.50;;;;;;;;;;6247218;28;20037;-73
2021/12/18 14:27:05;;;;;;;36.08;17.58;;;;;;;;;;6243735;28;20113;-73
2021/12/18 14:30:25;;;;;;;50.58;25.60;;;;;;;;;;6247820;28;20021;-73
2021/12/18 14:33:26;;;;;;;104.10;47.78;;;;;;;;;;6223246;28;20314;-73
2021/12/18 14:36:47;;;;;;;88.45;41.38;;;;;;;;;;6233891;28;20026;-73
2021/12/18 14:39:52;;;;;;;99.93;45.03;;;;;;;;;;6228598;28;20022;-73
2021/12/18 14:42:54;;;;;;;109.93;49.55;;;;;;;;;;6226085;28;20429;-73
2021/12/18 14:45:55;;;;;;;90.15;40.13;;;;;;;;;;6226968;28;20026;-73
2021/12/18 14:48:55;;;;;;;57.90;25.15;;;;;;;;;;6233981;28;20066;-73
2021/12/18 14:51:59;;;;;;;58.85;26.50;;;;;;;;;;6232940;28;20053;-73
2021/12/18 14:55:00;;;;;;;64.05;30.40;;;;;;;;;;6234308;28;20489;-73
2021/12/18 14:58:03;;;;;;;76.25;31.80;;;;;;;;;;6232636;28;20025;-73
2021/12/18 15:01:07;;;;;;;50.55;23.00;;;;;;;;;;6232929;28;20030;-73
2021/12/18 15:04:17;;;;;;;55.10;27.80;;;;;;;;;;6236011;28;20029;-73
2021/12/18 15:07:26;;;;;;;43.85;20.50;;;;;;;;;;6244846;28;20144;-73
2021/12/18 15:10:26;;;;;;;64.65;29.95;;;;;;;;;;6243937;28;20045;-73
2021/12/18 15:13:27;;;;;;;53.30;24.52;;;;;;;;;;6225955;28;20033;-73
2021/12/18 15:16:29;;;;;;;69.77;34.33;;;;;;;;;;6222088;28;20105;-73
2021/12/18 15:19:29;;;;;;;48.03;24.23;;;;;;;;;;6234280;28;20670;-73
2021/12/18 15:22:30;;;;;;;82.30;37.83;;;;;;;;;;6235320;28;20071;-73
2021/12/18 15:25:30;;;;;;;97.22;46.22;;;;;;;;;;6237051;28;20030;-73
2021/12/18 15:28:31;;;;;;;67.50;33.60;;;;;;;;;;6240277;28;20037;-73
2021/12/18 15:31:31;;;;;;;67.22;30.20;;;;;;;;;;6263343;28;20030;-73
2021/12/18 15:34:32;;;;;;;92.72;37.75;;;;;;;;;;6259405;28;20024;-73
2021/12/18 15:37:32;;;;;;;111.40;48.15;;;;;;;;;;6251183;28;20389;-73
2021/12/18 15:40:33;;;;;;;66.85;34.08;;;;;;;;;;6257632;28;20440;-73
2021/12/18 15:43:36;;;;;;;71.07;36.90;;;;;;;;;;6253498;28;20060;-73
2021/12/18 15:46:36;;;;;;;75.80;40.30;;;;;;;;;;6249324;28;20265;-73
2021/12/18 15:49:37;;;;;;;66.13;34.33;;;;;;;;;;6232041;28;20076;-73
2021/12/18 15:52:37;;;;;;;54.30;32.30;;;;;;;;;;6235900;28;20385;-72
2021/12/18 15:55:38;;;;;;;77.63;37.70;;;;;;;;;;6228703;28;20398;-72
2021/12/18 15:58:38;;;;;;;66.20;31.83;;;;;;;;;;6235113;28;20033;-72
2021/12/18 16:01:39;;;;;;;56.67;27.80;;;;;;;;;;6255569;28;20025;-72
2021/12/18 16:04:39;;;;;;;64.55;32.90;;;;;;;;;;6253751;28;20021;-72
2021/12/18 16:07:39;;;;;;;103.50;49.55;;;;;;;;;;6231581;28;20386;-72
2021/12/18 16:10:40;;;;;;;72.18;32.95;;;;;;;;;;6236295;28;20409;-72
2021/12/18 16:13:40;;;;;;;76.68;36.13;;;;;;;;;;6230371;28;20128;-72
2021/12/18 16:16:40;;;;;;;83.25;42.25;;;;;;;;;;6253946;28;20029;-72
2021/12/18 16:19:41;;;;;;;68.65;35.33;;;;;;;;;;6234185;28;20018;-72
2021/12/18 16:22:41;;;;;;;68.78;30.65;;;;;;;;;;6243379;28;20029;-73
2021/12/18 16:25:41;;;;;;;51.67;29.08;;;;;;;;;;6245672;28;20446;-73
2021/12/18 16:28:42;;;;;;;73.85;33.47;;;;;;;;;;6256016;28;20033;-72
2021/12/18 16:31:42;;;;;;;61.95;35.72;;;;;;;;;;6236934;28;20022;-72
2021/12/18 16:34:42;;;;;;;77.70;39.15;;;;;;;;;;6242496;28;20018;-72
2021/12/18 16:37:54;;;;;;;81.20;38.35;;;;;;;;;;6245553;28;20025;-72
2021/12/18 16:40:55;;;;;;;72.63;38.92;;;;;;;;;;6235968;28;20435;-72
2021/12/18 16:43:55;;;;;;;61.30;32.78;;;;;;;;;;6235084;28;20026;-72
2021/12/18 16:46:56;;;;;;;81.70;37.33;;;;;;;;;;6251103;28;20101;-72
2021/12/18 16:49:56;;;;;;;65.05;33.17;;;;;;;;;;6246080;28;20024;-72
2021/12/18 16:52:56;;;;;;;61.47;29.95;;;;;;;;;;6227510;28;20096;-72
2021/12/18 16:55:56;;;;;;;59.05;28.88;;;;;;;;;;6250206;28;20013;-72
2021/12/18 16:58:57;;;;;;;57.08;29.63;;;;;;;;;;6232631;28;20096;-73
2021/12/18 17:01:57;;;;;;;54.78;27.38;;;;;;;;;;6259698;28;20035;-73
2021/12/18 17:04:58;;;;;;;50.40;25.10;;;;;;;;;;6236324;28;20474;-73
2021/12/18 17:07:59;;;;;;;80.55;38.63;;;;;;;;;;6248249;28;20024;-73
2021/12/18 17:11:00;;;;;;;77.43;38.47;;;;;;;;;;6239135;28;20464;-73
2021/12/18 17:14:00;;;;;;;44.28;21.73;;;;;;;;;;6256166;28;20402;-73
2021/12/18 17:17:00;;;;;;;58.30;33.15;;;;;;;;;;6234778;28;20021;-73
2021/12/18 17:20:00;;;;;;;77.20;33.60;;;;;;;;;;6238053;28;20030;-73
2021/12/18 17:23:01;;;;;;;68.18;36.00;;;;;;;;;;6237884;28;20494;-73
2021/12/18 17:26:01;;;;;;;41.03;22.23;;;;;;;;;;6235656;28;20029;-73
2021/12/18 17:29:01;;;;;;;87.63;41.15;;;;;;;;;;6238020;28;20028;-73
2021/12/18 17:32:02;;;;;;;31.83;19.52;;;;;;;;;;6226816;28;20511;-73
2021/12/18 17:35:03;;;;;;;72.88;38.33;;;;;;;;;;6221625;28;20470;-73
2021/12/18 17:38:03;;;;;;;55.72;26.33;;;;;;;;;;6218950;28;20026;-73
2021/12/18 17:41:03;;;;;;;49.95;25.55;;;;;;;;;;6253704;28;20408;-73
2021/12/18 17:44:05;;;;;;;36.17;23.20;;;;;;;;;;6241533;28;20039;-73
2021/12/18 17:47:05;;;;;;;60.30;32.00;;;;;;;;;;6242269;28;20033;-73
2021/12/18 17:50:06;;;;;;;73.28;35.30;;;;;;;;;;6238088;28;20291;-73
2021/12/18 17:53:06;;;;;;;61.88;32.10;;;;;;;;;;6223688;28;20070;-73
2021/12/18 17:56:07;;;;;;;67.30;32.00;;;;;;;;;;6232701;28;20148;-73
2021/12/18 17:59:07;;;;;;;86.53;38.00;;;;;;;;;;6233742;28;20025;-73
2021/12/18 18:02:08;;;;;;;64.25;35.63;;;;;;;;;;6239220;28;20417;-73
2021/12/18 18:05:09;;;;;;;71.05;36.83;;;;;;;;;;6223112;28;20079;-73
2021/12/18 18:08:13;;;;;;;95.68;47.08;;;;;;;;;;6239535;28;20523;-73
2021/12/18 18:11:13;;;;;;;72.80;32.60;;;;;;;;;;6231062;28;20042;-73
2021/12/18 18:14:13;;;;;;;111.88;53.53;;;;;;;;;;6232810;28;20036;-73
2021/12/18 18:17:14;;;;;;;59.60;27.05;;;;;;;;;;6241470;28;20516;-73
2021/12/18 18:20:14;;;;;;;45.63;24.10;;;;;;;;;;6222244;28;20386;-73
2021/12/18 18:23:15;;;;;;;79.93;39.53;;;;;;;;;;6242776;28;20088;-73